Skip Navigation Links Skip Navigation Links

Current Weather

Kitakyushu Airport, Japan

For information only: do not use for flight planning or navigation.
Latest weather
Observation time Tuesday, October 19, 2021 4:00 AM JST
Local time Tuesday, October 19, 2021 4:24 AM JST
Flight conditions Visual Meteorological Conditions
Winds
Wind direction Northwest (320°)
Wind speed 6 mph
Visibility 6.2 mi.
Sky condition
Ceiling 16,000 ft. broken clouds
Cloud layer few clouds 2,000 ft.
Cloud layer broken clouds 16,000 ft.
Temperature 61°F
Dewpoint 55°F
Altimeter 30.03 in.Hg
Derived measurements
Relative humidity 82%
Density altitude 203 ft.
METAR RJFR 181900Z 32005KT 9999 FEW020 BKN160 16/13 Q1017

Settings

Location code

InnerDrive.Weather 4.0.6770.0 Release CLR 4.0.30319.42000
Copyright ©2018 Inner Drive Technology. All rights reserved. Portions Copyright ©1986-2018 David Braverman.

Find weather

Site navigation


Skip Navigation Links

Place info

Page info

PayPal - The safer, easier way to pay online!

Return home.

Copyright ©2021 Inner Drive Technology. Purveyors of fine, hand-crafted computer software. Page printed 2021-10-18T19:24:25 UTC.